createdAt,value
2018-09-12T16:00:25.871Z,5.97
2018-09-12T16:02:54.157Z,6.67
2018-09-12T16:05:22.262Z,7.10
2018-09-12T16:10:25.597Z,8.23
2018-09-12T16:12:53.761Z,8.50
2018-09-12T16:15:21.779Z,8.90
2018-09-12T16:17:49.692Z,8.07
2018-09-12T16:20:17.894Z,7.47
2018-09-12T16:22:45.842Z,7.13
2018-09-12T16:25:14.012Z,7.97
2018-09-12T16:27:42.185Z,6.83
2018-09-12T16:30:10.132Z,8.03
2018-09-12T16:32:38.292Z,7.37
2018-09-12T16:35:06.232Z,7.83
2018-09-12T16:37:34.389Z,9.03
2018-09-12T16:40:02.452Z,9.77
2018-09-12T16:42:30.320Z,10.07
2018-09-12T16:44:58.510Z,10.90
2018-09-12T16:47:26.670Z,10.40
2018-09-12T16:49:54.864Z,11.90
2018-09-12T16:52:23.058Z,11.80
2018-09-12T16:54:51.296Z,11.00
2018-09-12T16:57:19.441Z,13.00
2018-09-12T16:59:47.642Z,15.43
2018-09-12T17:02:15.579Z,14.33
2018-09-12T17:04:43.529Z,11.63
2018-09-12T17:07:11.459Z,13.13
2018-09-12T17:09:39.633Z,11.50
2018-09-12T17:12:08.216Z,12.90
2018-09-12T17:14:36.405Z,12.57
2018-09-12T17:17:04.594Z,11.57
2018-09-12T17:19:32.592Z,13.47
2018-09-12T17:22:00.770Z,11.47
2018-09-12T17:24:28.742Z,13.83
2018-09-12T17:26:56.908Z,14.10
2018-09-12T17:29:25.121Z,15.13
2018-09-12T17:31:53.048Z,13.80
2018-09-12T17:34:20.990Z,15.20
2018-09-12T17:36:48.925Z,14.20
2018-09-12T17:39:17.113Z,14.30
2018-09-12T17:41:45.046Z,17.07
2018-09-12T17:44:12.991Z,13.07
2018-09-12T17:46:40.929Z,12.63
2018-09-12T17:49:09.153Z,14.40
2018-09-12T17:51:37.329Z,14.90
2018-09-12T17:54:05.242Z,15.33
2018-09-12T17:56:33.176Z,14.97
2018-09-12T17:59:01.621Z,15.77
2018-09-12T18:01:29.578Z,16.17
2018-09-12T18:03:57.520Z,15.30
2018-09-12T18:06:25.504Z,16.50
2018-09-12T18:08:53.548Z,16.60
2018-09-12T18:11:21.548Z,15.60
2018-09-12T18:13:49.451Z,17.80
2018-09-12T18:16:17.645Z,16.43
2018-09-12T18:18:45.688Z,17.80
2018-09-12T18:21:13.621Z,18.07
2018-09-12T18:23:41.565Z,18.60
2018-09-12T18:26:09.511Z,18.80
2018-09-12T18:28:37.708Z,20.20
2018-09-12T18:31:05.645Z,20.03
2018-09-12T18:33:33.577Z,18.23
2018-09-12T18:36:01.649Z,18.53
2018-09-12T18:38:29.571Z,21.47
2018-09-12T18:40:57.512Z,20.17
2018-09-12T18:43:25.440Z,20.07
2018-09-12T18:45:53.404Z,20.27
2018-09-12T18:48:21.361Z,18.83
2018-09-12T18:50:49.552Z,20.90
2018-09-12T18:53:17.738Z,19.47
2018-09-12T18:55:45.928Z,17.60
2018-09-12T18:58:14.113Z,18.63
2018-09-12T19:00:42.380Z,16.93
2018-09-12T19:03:10.330Z,16.63
2018-09-12T19:05:38.524Z,15.40
2018-09-12T19:08:06.696Z,16.57
2018-09-12T19:10:34.648Z,12.93
2018-09-12T19:13:02.804Z,12.47
2018-09-12T19:15:30.993Z,13.67
2018-09-12T19:17:59.417Z,13.20
2018-09-12T19:20:27.602Z,11.77
2018-09-12T19:22:55.784Z,12.67
2018-09-12T19:25:23.709Z,12.47
2018-09-12T19:27:51.885Z,12.90
2018-09-12T19:30:20.113Z,12.93
2018-09-12T19:32:48.284Z,12.10
2018-09-12T19:35:16.458Z,11.93
2018-09-12T19:37:44.620Z,12.53
2018-09-12T19:40:12.800Z,11.70
2018-09-12T19:42:40.985Z,11.60
2018-09-12T19:45:09.402Z,10.50
2018-09-12T19:47:37.588Z,11.60
2018-09-12T19:50:06.265Z,12.17
2018-09-12T19:52:34.417Z,11.20
2018-09-12T19:55:02.611Z,11.07
2018-09-12T19:57:30.791Z,10.50
2018-09-12T19:59:58.977Z,10.17
2018-09-12T20:02:28.789Z,9.37
2018-09-12T20:04:57.708Z,9.03
2018-09-12T20:07:25.732Z,9.17
2018-09-12T20:09:53.911Z,8.80
2018-09-12T20:12:22.714Z,9.00
2018-09-12T20:14:50.885Z,9.50
2018-09-12T20:17:19.061Z,9.43
2018-09-12T20:19:47.369Z,8.13
2018-09-12T20:22:15.754Z,8.00
2018-09-12T20:24:43.901Z,7.80
2018-09-12T20:27:12.085Z,8.80
2018-09-12T20:29:40.293Z,6.90
2018-09-12T20:32:08.446Z,6.60
2018-09-12T20:34:36.631Z,6.37
2018-09-12T20:37:04.524Z,6.00
2018-09-12T20:39:32.743Z,6.17
2018-09-12T20:42:00.948Z,5.57
2018-09-12T20:44:29.123Z,6.03
2018-09-12T20:46:57.289Z,5.20
2018-09-12T20:49:25.464Z,4.70
2018-09-12T20:51:53.397Z,4.80
2018-09-12T20:54:21.577Z,4.43
2018-09-12T20:56:49.488Z,4.70
2018-09-12T20:59:17.662Z,5.10
2018-09-12T21:01:45.831Z,4.77
2018-09-12T21:04:13.989Z,4.20
2018-09-12T21:06:42.172Z,4.33
2018-09-12T21:09:14.860Z,3.80
2018-09-12T21:11:43.018Z,5.63
2018-09-12T21:14:11.208Z,5.60
2018-09-12T21:16:39.388Z,5.40
2018-09-12T21:19:07.857Z,7.33
2018-09-12T21:21:35.817Z,5.33
2018-09-12T21:24:03.968Z,4.87
2018-09-12T21:26:32.145Z,5.87
2018-09-12T21:29:00.400Z,5.00
2018-09-12T21:31:28.628Z,5.70
2018-09-12T21:33:56.765Z,5.80
2018-09-12T21:36:24.940Z,6.20
2018-09-12T21:38:53.152Z,6.00
2018-09-12T21:41:21.329Z,7.43
2018-09-12T21:43:49.244Z,6.77
2018-09-12T21:46:17.185Z,7.10
2018-09-12T21:48:45.108Z,7.43
2018-09-12T21:51:13.294Z,7.50
2018-09-12T21:53:41.465Z,6.47
2018-09-12T21:56:09.412Z,6.40
2018-09-12T21:58:37.564Z,8.33
